Time;durP1;ratioP1;P1;durP2;ratioP2;P2;SDS_P1;SDS_P2;PMS_P1;PMS_P2;Temp;Humidity;BMP_temperature;BMP_pressure;BME280_temperature;BME280_humidity;BME280_pressure;Samples;Min_cycle;Max_cycle;Signal;HPM_P1;HPM_P2
2023/01/19 00:01:28;;;;;;;17.08;15.98;;;2.70;99.90;;;;;;5232879;22;20026;-84
2023/01/19 00:03:48;;;;;;;24.05;21.52;;;2.60;99.90;;;;;;5224424;22;20022;-84
2023/01/19 00:06:08;;;;;;;21.58;19.77;;;2.60;99.90;;;;;;5216361;22;20041;-84
2023/01/19 00:08:29;;;;;;;23.92;21.95;;;2.60;99.90;;;;;;5218311;22;20240;-84
2023/01/19 00:10:52;;;;;;;24.90;22.33;;;2.60;99.90;;;;;;5224370;22;20253;-84
2023/01/19 00:13:14;;;;;;;19.02;17.73;;;2.60;99.90;;;;;;5224362;22;20021;-84
2023/01/19 00:15:34;;;;;;;17.95;16.67;;;2.70;99.90;;;;;;5210955;22;20049;-84
2023/01/19 00:17:53;;;;;;;17.55;16.42;;;2.70;99.90;;;;;;5213857;22;20026;-84
2023/01/19 00:20:13;;;;;;;16.35;15.25;;;2.70;99.90;;;;;;5209328;22;20077;-84
2023/01/19 00:22:33;;;;;;;16.90;15.70;;;2.70;99.90;;;;;;5204520;22;20026;-84
2023/01/19 00:24:53;;;;;;;17.77;16.48;;;2.70;99.90;;;;;;5234941;22;20278;-84
2023/01/19 00:27:13;;;;;;;17.95;16.55;;;2.70;99.90;;;;;;5232879;22;20022;-84
2023/01/19 00:29:33;;;;;;;17.00;16.05;;;2.80;99.90;;;;;;5224262;22;20064;-84
2023/01/19 00:31:53;;;;;;;16.75;15.55;;;2.80;99.90;;;;;;5224151;22;20056;-84
2023/01/19 00:34:13;;;;;;;15.90;15.10;;;2.80;99.90;;;;;;5224186;22;20069;-84
2023/01/19 00:36:33;;;;;;;16.33;14.80;;;2.80;99.90;;;;;;5232683;22;20073;-84
2023/01/19 00:38:53;;;;;;;15.13;14.23;;;2.80;99.90;;;;;;5236011;22;20026;-84
2023/01/19 00:41:12;;;;;;;17.33;15.93;;;2.80;99.90;;;;;;5222435;22;20021;-84
2023/01/19 00:43:33;;;;;;;18.58;17.15;;;2.80;99.90;;;;;;5204619;22;20085;-84
2023/01/19 00:45:53;;;;;;;19.05;17.33;;;2.80;99.90;;;;;;5227298;22;20038;-84
2023/01/19 00:48:13;;;;;;;20.95;19.45;;;2.80;99.90;;;;;;5210596;22;20043;-84
2023/01/19 00:50:33;;;;;;;21.42;19.63;;;2.80;99.90;;;;;;5201802;22;20022;-84
2023/01/19 00:52:55;;;;;;;20.52;19.08;;;2.90;99.90;;;;;;5200622;22;20027;-84
2023/01/19 00:55:15;;;;;;;18.42;17.23;;;2.90;99.90;;;;;;5232738;22;20113;-84
2023/01/19 00:57:36;;;;;;;19.77;18.13;;;2.90;99.90;;;;;;5223675;22;20334;-84
2023/01/19 00:59:56;;;;;;;17.63;16.52;;;2.80;99.90;;;;;;5224059;22;20030;-85
2023/01/19 01:02:16;;;;;;;18.52;17.10;;;2.90;99.90;;;;;;5224092;22;20057;-85
2023/01/19 01:04:37;;;;;;;18.00;16.48;;;2.80;99.90;;;;;;5232742;22;20065;-84
2023/01/19 01:06:57;;;;;;;17.52;16.38;;;2.80;99.90;;;;;;5209040;22;20061;-84
2023/01/19 01:09:17;;;;;;;18.98;17.58;;;2.90;99.90;;;;;;5197281;22;20083;-84
2023/01/19 01:11:38;;;;;;;18.88;17.40;;;2.90;99.90;;;;;;5218972;22;20038;-84
2023/01/19 01:13:58;;;;;;;21.13;18.85;;;2.80;99.90;;;;;;5200594;22;20084;-84
2023/01/19 01:16:18;;;;;;;17.85;16.42;;;2.70;99.90;;;;;;5199212;22;20023;-84
2023/01/19 01:18:39;;;;;;;16.70;15.68;;;2.80;99.90;;;;;;5226163;22;20050;-84
2023/01/19 01:21:04;;;;;;;18.17;16.65;;;2.90;99.90;;;;;;5208927;22;20369;-84
2023/01/19 01:23:24;;;;;;;17.33;16.02;;;2.80;99.90;;;;;;5217737;22;20069;-84
2023/01/19 01:25:45;;;;;;;17.20;16.10;;;2.60;99.90;;;;;;5224028;22;20022;-84
2023/01/19 01:28:07;;;;;;;16.45;15.57;;;2.60;99.90;;;;;;5224053;22;20343;-84
2023/01/19 01:30:27;;;;;;;19.70;18.13;;;2.70;99.90;;;;;;5226089;22;20214;-84
2023/01/19 01:32:48;;;;;;;21.33;19.45;;;2.70;99.90;;;;;;5223883;22;20248;-84
2023/01/19 01:35:09;;;;;;;25.73;21.27;;;2.70;99.90;;;;;;5224076;22;20042;-84
2023/01/19 01:37:29;;;;;;;34.22;21.75;;;2.70;99.90;;;;;;5222452;22;20034;-84
2023/01/19 01:39:48;;;;;;;22.23;20.00;;;2.60;99.90;;;;;;5204147;22;20068;-84
2023/01/19 01:42:17;;;;;;;24.20;21.63;;;2.60;99.90;;;;;;5212892;22;20058;-84
2023/01/19 01:44:58;;;;;;;21.63;20.08;;;2.60;99.90;;;;;;5201499;22;20022;-84
2023/01/19 01:47:57;;;;;;;19.30;17.75;;;2.60;99.90;;;;;;5206907;22;20066;-85
2023/01/19 01:50:21;;;;;;;18.13;16.92;;;2.60;99.90;;;;;;5121242;23;20027;-84
2023/01/19 01:53:01;;;;;;;18.00;16.75;;;2.60;99.90;;;;;;5121260;23;20073;-84
2023/01/19 01:55:28;;;;;;;19.33;17.63;;;2.60;99.90;;;;;;5124358;23;20027;-84
2023/01/19 01:57:53;;;;;;;18.92;17.52;;;2.60;99.90;;;;;;5103162;23;20056;-85
2023/01/19 02:00:14;;;;;;;18.23;16.92;;;2.60;99.90;;;;;;5099660;23;20074;-84
2023/01/19 02:02:51;;;;;;;17.13;16.08;;;2.60;99.90;;;;;;5099682;23;20024;-84
2023/01/19 02:05:25;;;;;;;18.25;17.08;;;2.60;99.90;;;;;;5106190;23;20031;-84
2023/01/19 02:13:22;;;;;;;17.48;16.27;;;2.70;99.90;;;;;;5132357;23;20024;-84
2023/01/19 02:15:41;;;;;;;20.13;18.38;;;2.70;99.90;;;;;;5132359;23;20040;-85
2023/01/19 02:18:02;;;;;;;21.38;19.65;;;2.70;99.90;;;;;;5124149;23;20075;-84
2023/01/19 02:20:26;;;;;;;19.73;18.23;;;2.70;99.90;;;;;;5124137;23;20084;-85
2023/01/19 02:22:49;;;;;;;20.80;19.27;;;2.70;99.90;;;;;;5132388;23;20460;-84
2023/01/19 02:25:08;;;;;;;19.98;18.38;;;2.70;99.90;;;;;;5198626;22;20333;-84
2023/01/19 02:27:29;;;;;;;17.70;16.27;;;2.70;99.90;;;;;;5210815;22;20026;-84
2023/01/19 02:29:49;;;;;;;16.77;15.52;;;2.80;99.90;;;;;;5202227;22;20262;-84
2023/01/19 02:32:09;;;;;;;17.90;16.60;;;2.80;99.90;;;;;;5223685;22;20050;-84
2023/01/19 02:34:30;;;;;;;17.98;16.67;;;2.80;99.90;;;;;;5223558;22;20051;-84
2023/01/19 02:36:56;;;;;;;16.77;15.60;;;2.80;99.90;;;;;;5232088;22;20034;-84
2023/01/19 02:39:19;;;;;;;16.58;15.50;;;2.80;99.90;;;;;;5223072;22;20034;-85
2023/01/19 02:41:43;;;;;;;17.48;16.17;;;2.80;99.90;;;;;;5210729;22;20069;-85
2023/01/19 02:44:05;;;;;;;17.58;16.27;;;2.80;99.90;;;;;;5210930;22;20297;-84
2023/01/19 02:46:25;;;;;;;15.45;14.27;;;2.80;99.90;;;;;;5216090;22;20026;-84
2023/01/19 02:48:45;;;;;;;15.07;14.20;;;2.80;99.90;;;;;;5200196;22;20328;-84
2023/01/19 02:51:16;;;;;;;16.00;15.07;;;2.80;99.90;;;;;;5216147;22;20372;-84
2023/01/19 02:53:56;;;;;;;18.42;16.77;;;2.80;99.90;;;;;;5212273;22;20338;-84
2023/01/19 02:56:35;;;;;;;18.45;17.15;;;2.70;99.90;;;;;;5224812;22;20026;-84
2023/01/19 02:59:29;;;;;;;16.27;15.23;;;2.80;99.90;;;;;;5223407;22;20030;-84
2023/01/19 03:01:58;;;;;;;15.95;14.98;;;2.80;99.90;;;;;;5223552;22;20211;-84
2023/01/19 03:04:22;;;;;;;20.20;18.65;;;2.80;99.90;;;;;;5196568;22;20077;-84
2023/01/19 03:06:47;;;;;;;;;;;2.80;99.90;;;;;;5223286;22;20038;-84
2023/01/19 03:09:12;;;;;;;19.52;17.77;;;2.80;99.90;;;;;;5223451;22;19925;-84
2023/01/19 03:11:37;;;;;;;67.13;24.83;;;2.70;99.90;;;;;;5199782;22;20100;-84
2023/01/19 03:14:18;;;;;;;15.80;14.70;;;2.70;99.90;;;;;;5220456;22;20026;-84
2023/01/19 03:16:47;;;;;;;17.80;16.42;;;2.60;99.90;;;;;;5221374;22;20022;-84
2023/01/19 03:19:09;;;;;;;19.08;17.70;;;2.60;99.90;;;;;;5178268;22;20369;-84
2023/01/19 03:21:32;;;;;;;18.70;17.40;;;2.60;99.90;;;;;;5210942;22;20026;-84
2023/01/19 03:23:55;;;;;;;11.65;11.13;;;2.60;99.90;;;;;;5203615;22;20066;-84
2023/01/19 03:26:20;;;;;;;12.15;11.65;;;2.50;99.90;;;;;;5218918;22;20026;-84
2023/01/19 03:28:42;;;;;;;15.30;14.40;;;2.50;99.90;;;;;;5208462;22;20274;-84
2023/01/19 03:31:11;;;;;;;12.65;11.98;;;2.50;99.90;;;;;;5233148;22;20052;-84
2023/01/19 03:33:36;;;;;;;11.27;10.88;;;2.50;99.90;;;;;;5224321;22;20046;-84
2023/01/19 03:36:03;;;;;;;8.27;7.97;;;2.50;99.90;;;;;;5210394;22;20030;-84
2023/01/19 03:38:27;;;;;;;8.35;8.15;;;2.50;99.90;;;;;;5226120;22;20057;-84
2023/01/19 03:40:47;;;;;;;8.00;7.90;;;2.40;99.90;;;;;;5184472;22;20051;-84
2023/01/19 03:43:08;;;;;;;7.43;7.32;;;2.40;99.90;;;;;;5220521;22;20083;-84
2023/01/19 03:45:33;;;;;;;8.75;8.65;;;2.40;99.90;;;;;;5203206;22;20330;-84
2023/01/19 03:47:54;;;;;;;7.05;6.95;;;2.30;99.90;;;;;;5222761;22;20421;-84
2023/01/19 03:50:26;;;;;;;6.38;6.28;;;2.30;99.90;;;;;;5227924;22;20079;-84
2023/01/19 03:52:45;;;;;;;7.05;6.75;;;2.30;99.90;;;;;;5226528;22;20029;-84
2023/01/19 03:55:05;;;;;;;6.65;6.55;;;2.20;99.90;;;;;;5202015;22;20027;-84
2023/01/19 03:57:25;;;;;;;8.02;7.85;;;2.20;99.90;;;;;;5200733;22;20026;-84
2023/01/19 03:59:45;;;;;;;7.07;6.88;;;2.10;99.90;;;;;;5211406;22;20023;-84
2023/01/19 04:02:05;;;;;;;7.60;7.40;;;2.10;99.90;;;;;;5224519;22;20022;-84
2023/01/19 04:04:25;;;;;;;7.68;7.47;;;2.00;99.90;;;;;;5224596;22;20022;-84
2023/01/19 04:06:45;;;;;;;6.40;6.30;;;2.10;99.90;;;;;;5224269;22;20035;-84
2023/01/19 04:09:05;;;;;;;5.95;5.72;;;2.10;99.90;;;;;;5224254;22;20218;-84
2023/01/19 04:11:24;;;;;;;7.82;7.63;;;2.10;99.90;;;;;;5224370;22;20061;-84
2023/01/19 04:13:45;;;;;;;9.25;8.95;;;2.00;99.90;;;;;;5232824;22;20037;-84
2023/01/19 04:16:05;;;;;;;7.18;7.07;;;2.10;99.90;;;;;;5224154;22;20064;-84
2023/01/19 04:18:25;;;;;;;7.97;7.88;;;2.00;99.90;;;;;;5222363;22;20025;-84
2023/01/19 04:20:45;;;;;;;7.97;7.88;;;2.10;99.90;;;;;;5212461;22;20056;-84
2023/01/19 04:23:05;;;;;;;7.65;7.55;;;2.10;99.90;;;;;;5224248;22;20026;-84
2023/01/19 04:25:26;;;;;;;7.40;7.30;;;2.10;99.90;;;;;;5224329;22;20058;-84
2023/01/19 04:27:46;;;;;;;7.32;7.22;;;2.10;99.90;;;;;;5196080;22;20030;-84
2023/01/19 04:30:07;;;;;;;7.43;7.32;;;2.10;99.90;;;;;;5215523;22;20026;-84
2023/01/19 04:32:26;;;;;;;7.85;7.75;;;2.00;99.90;;;;;;5223880;22;20067;-84
2023/01/19 04:34:46;;;;;;;7.65;7.55;;;1.90;99.90;;;;;;5224211;22;20042;-84
2023/01/19 04:37:07;;;;;;;9.30;8.93;;;1.80;99.90;;;;;;5204824;22;20023;-84
2023/01/19 04:39:27;;;;;;;8.38;8.27;;;1.80;99.90;;;;;;5229739;22;20026;-84
2023/01/19 04:41:47;;;;;;;8.75;8.55;;;1.80;99.90;;;;;;5224243;22;20041;-85
2023/01/19 04:44:08;;;;;;;8.25;8.15;;;1.90;99.90;;;;;;5200509;22;20027;-84
2023/01/19 04:46:28;;;;;;;7.53;7.32;;;1.90;99.90;;;;;;5197788;22;20027;-84
2023/01/19 04:48:48;;;;;;;8.70;8.50;;;1.80;99.90;;;;;;5225522;22;20023;-84
2023/01/19 04:51:08;;;;;;;8.73;8.63;;;1.80;99.90;;;;;;5200559;22;20065;-85
2023/01/19 04:53:28;;;;;;;8.32;8.23;;;1.80;99.90;;;;;;5201604;22;20054;-84
2023/01/19 04:55:53;;;;;;;10.13;9.73;;;1.90;99.90;;;;;;5210267;22;20211;-85
2023/01/19 04:58:14;;;;;;;10.27;9.95;;;1.70;99.90;;;;;;5201998;22;20266;-84
2023/01/19 05:00:34;;;;;;;7.63;7.53;;;1.60;99.90;;;;;;5224212;22;20215;-85
2023/01/19 05:02:55;;;;;;;9.73;9.50;;;1.60;99.90;;;;;;5223032;22;20031;-85
2023/01/19 05:05:16;;;;;;;14.57;13.32;;;1.70;99.90;;;;;;5224214;22;20077;-85
2023/01/19 05:07:36;;;;;;;17.65;15.75;;;1.80;99.90;;;;;;5226335;22;20334;-85
2023/01/19 05:09:56;;;;;;;17.10;15.50;;;1.80;99.90;;;;;;5207842;22;20057;-85
2023/01/19 05:12:16;;;;;;;14.60;13.57;;;1.80;99.90;;;;;;5224156;22;20354;-85
2023/01/19 05:14:36;;;;;;;12.82;12.00;;;1.80;99.90;;;;;;5224062;22;20248;-85
2023/01/19 05:16:56;;;;;;;11.18;10.45;;;1.90;99.90;;;;;;5232450;22;20053;-85
2023/01/19 05:19:16;;;;;;;10.98;10.57;;;1.90;99.90;;;;;;5212385;22;20022;-85
2023/01/19 05:21:37;;;;;;;10.07;9.77;;;1.90;99.90;;;;;;5221868;22;20108;-84
2023/01/19 05:23:57;;;;;;;11.40;9.93;;;1.90;99.90;;;;;;5200506;22;20035;-84
2023/01/19 05:26:17;;;;;;;27.55;11.38;;;1.80;99.90;;;;;;5215421;22;20058;-84
2023/01/19 05:28:37;;;;;;;11.70;11.20;;;1.70;99.90;;;;;;5224175;22;20053;-84
2023/01/19 05:30:58;;;;;;;11.70;11.30;;;1.70;99.90;;;;;;5226028;22;20025;-84
2023/01/19 05:33:18;;;;;;;10.43;10.23;;;1.70;99.90;;;;;;5223989;22;20060;-84
2023/01/19 05:35:38;;;;;;;10.05;9.95;;;1.70;99.90;;;;;;5224059;22;20025;-84
2023/01/19 05:37:58;;;;;;;9.90;9.80;;;1.70;99.90;;;;;;5222724;22;20060;-84
2023/01/19 05:40:18;;;;;;;9.45;9.35;;;1.60;99.90;;;;;;5224054;22;20329;-84
2023/01/19 05:42:38;;;;;;;9.73;9.52;;;1.60;99.90;;;;;;5223965;22;20026;-84
2023/01/19 05:44:58;;;;;;;10.18;10.05;;;1.60;99.90;;;;;;5223831;22;20029;-84
2023/01/19 05:47:18;;;;;;;10.13;9.93;;;1.50;99.90;;;;;;5222141;22;20146;-84
2023/01/19 05:49:37;;;;;;;10.18;9.90;;;1.70;99.90;;;;;;5200411;22;20345;-84
2023/01/19 05:51:57;;;;;;;13.65;12.85;;;1.70;99.90;;;;;;5226957;22;20045;-84
2023/01/19 05:54:17;;;;;;;11.80;11.40;;;1.60;99.90;;;;;;5203173;22;20025;-84
2023/01/19 05:56:38;;;;;;;12.70;12.10;;;1.50;99.90;;;;;;5187152;22;20362;-84
2023/01/19 05:58:58;;;;;;;11.60;11.20;;;1.60;99.90;;;;;;5178698;22;20026;-84
2023/01/19 06:01:18;;;;;;;34.75;25.27;;;1.60;99.90;;;;;;5223844;22;20035;-84
2023/01/19 06:03:41;;;;;;;17.48;16.08;;;1.60;99.90;;;;;;5211121;22;20080;-84
2023/01/19 06:06:02;;;;;;;14.07;13.20;;;1.50;99.90;;;;;;5224005;22;20046;-84
2023/01/19 06:08:22;;;;;;;10.65;10.27;;;1.50;99.90;;;;;;5223814;22;20058;-84
2023/01/19 06:10:42;;;;;;;10.25;10.00;;;1.40;99.90;;;;;;5223793;22;20022;-84
2023/01/19 06:13:02;;;;;;;9.45;9.15;;;1.40;99.90;;;;;;5223854;22;20092;-84
2023/01/19 06:15:22;;;;;;;8.88;8.73;;;1.30;99.90;;;;;;5223740;22;20029;-85
2023/01/19 06:17:43;;;;;;;8.23;8.13;;;1.30;99.90;;;;;;5223687;22;20034;-85
2023/01/19 06:20:04;;;;;;;8.30;7.78;;;1.30;99.90;;;;;;5223777;22;20022;-84
2023/01/19 06:22:24;;;;;;;9.27;8.98;;;1.40;99.90;;;;;;5223703;22;20026;-84
2023/01/19 06:24:44;;;;;;;8.38;8.27;;;1.40;99.90;;;;;;5209561;22;20069;-84
2023/01/19 06:27:05;;;;;;;9.98;9.73;;;1.40;99.90;;;;;;5188693;22;20023;-86
2023/01/19 06:29:26;;;;;;;10.65;10.35;;;1.30;99.90;;;;;;5216638;22;20057;-86
2023/01/19 06:31:48;;;;;;;14.27;13.25;;;1.20;99.90;;;;;;5214134;22;20030;-86
2023/01/19 06:34:08;;;;;;;10.20;9.90;;;1.30;99.90;;;;;;5227752;22;20368;-86
2023/01/19 06:36:28;;;;;;;9.43;9.13;;;1.30;99.90;;;;;;5203290;22;20023;-86
2023/01/19 06:38:48;;;;;;;7.22;7.13;;;1.30;99.90;;;;;;5229880;22;20371;-86
2023/01/19 06:41:08;;;;;;;7.93;7.82;;;1.30;99.90;;;;;;5232246;22;20022;-86
2023/01/19 06:43:28;;;;;;;7.05;6.95;;;1.30;99.90;;;;;;5208683;22;20026;-86
2023/01/19 06:45:49;;;;;;;7.13;6.93;;;1.30;99.90;;;;;;5233178;22;20022;-86
2023/01/19 06:48:09;;;;;;;9.90;9.80;;;1.30;99.90;;;;;;5225642;22;20022;-86
2023/01/19 06:50:28;;;;;;;10.52;10.10;;;1.30;99.90;;;;;;5212395;22;20325;-86
2023/01/19 06:52:52;;;;;;;11.13;10.73;;;1.30;99.90;;;;;;5201028;22;20022;-86
2023/01/19 06:55:13;;;;;;;10.95;10.55;;;1.30;99.90;;;;;;5201006;22;20214;-86
2023/01/19 06:57:33;;;;;;;13.32;12.68;;;1.30;99.90;;;;;;5180421;22;20022;-86
2023/01/19 06:59:53;;;;;;;9.23;9.02;;;1.30;99.90;;;;;;5223502;22;20282;-86
2023/01/19 07:02:18;;;;;;;12.68;12.15;;;1.30;99.90;;;;;;5224561;22;20022;-86
2023/01/19 07:04:47;;;;;;;12.43;11.85;;;1.40;99.90;;;;;;5201160;22;20026;-86
2023/01/19 07:07:07;;;;;;;24.80;17.48;;;1.40;99.90;;;;;;5228123;22;20430;-86
2023/01/19 07:09:27;;;;;;;21.50;15.43;;;1.30;99.90;;;;;;5219915;22;20060;-86
2023/01/19 07:11:47;;;;;;;19.95;16.58;;;1.30;99.90;;;;;;5221609;22;20338;-86
2023/01/19 07:14:07;;;;;;;17.23;15.77;;;1.30;99.90;;;;;;5212393;22;20023;-86
2023/01/19 07:16:27;;;;;;;12.40;11.90;;;1.40;99.90;;;;;;5233069;22;20215;-86
2023/01/19 07:18:48;;;;;;;10.07;9.77;;;1.30;99.90;;;;;;5232999;22;20069;-86
2023/01/19 07:21:08;;;;;;;10.52;10.23;;;1.20;99.90;;;;;;5224516;22;20328;-86
2023/01/19 07:23:29;;;;;;;9.57;9.38;;;1.20;99.90;;;;;;5207473;22;20217;-85
2023/01/19 07:25:49;;;;;;;11.70;11.23;;;1.20;99.90;;;;;;5217867;22;20399;-85
2023/01/19 07:28:11;;;;;;;11.65;11.40;;;1.20;99.90;;;;;;5224575;22;20113;-86
2023/01/19 07:30:31;;;;;;;17.15;15.95;;;1.10;99.90;;;;;;5226645;22;20234;-86
2023/01/19 07:32:55;;;;;;;14.80;14.13;;;1.10;99.90;;;;;;5202443;22;20022;-86
2023/01/19 07:35:15;;;;;;;;;;;1.20;99.90;;;;;;5223872;22;20061;-86
2023/01/19 07:37:35;;;;;;;12.57;12.07;;;1.20;99.90;;;;;;5198815;22;19958;-86
2023/01/19 07:39:55;;;;;;;15.82;14.95;;;1.10;99.90;;;;;;5222679;22;20029;-86
2023/01/19 07:42:15;;;;;;;12.07;11.68;;;1.10;99.90;;;;;;5222679;22;20031;-86
2023/01/19 07:44:34;;;;;;;10.57;10.38;;;1.10;99.90;;;;;;5212065;22;20089;-86
2023/01/19 07:46:54;;;;;;;11.45;11.25;;;1.10;99.90;;;;;;5202020;22;20093;-86
2023/01/19 07:49:14;;;;;;;10.98;10.88;;;1.20;99.90;;;;;;5209287;22;20338;-86
2023/01/19 07:51:35;;;;;;;13.27;12.98;;;1.20;99.90;;;;;;5211443;22;20070;-86
2023/01/19 07:53:54;;;;;;;31.25;28.33;;;1.20;99.90;;;;;;5232984;22;20211;-86
2023/01/19 07:56:14;;;;;;;30.63;24.95;;;1.20;99.90;;;;;;5203819;22;20026;-86
2023/01/19 07:58:34;;;;;;;18.88;17.25;;;1.20;99.90;;;;;;5224413;22;20250;-86
2023/01/19 08:00:54;;;;;;;17.70;15.82;;;1.30;99.90;;;;;;5206193;22;20364;-86
2023/01/19 08:03:15;;;;;;;12.20;11.65;;;1.30;99.90;;;;;;5216697;22;20332;-86
2023/01/19 08:05:35;;;;;;;9.32;9.13;;;1.40;99.90;;;;;;5233062;22;20022;-86
2023/01/19 08:07:56;;;;;;;10.85;10.55;;;1.40;99.90;;;;;;5232270;22;20026;-86
2023/01/19 08:10:16;;;;;;;10.88;10.40;;;1.40;99.90;;;;;;5200672;22;20058;-86
2023/01/19 08:12:36;;;;;;;9.75;9.50;;;1.50;99.90;;;;;;5200762;22;20083;-86
2023/01/19 08:14:56;;;;;;;10.10;9.43;;;1.50;99.90;;;;;;5191143;22;20273;-86
2023/01/19 08:17:16;;;;;;;9.20;9.00;;;1.40;99.90;;;;;;5232807;22;20021;-86
2023/01/19 08:19:36;;;;;;;12.52;12.10;;;1.50;99.90;;;;;;5232823;22;20025;-86
2023/01/19 08:21:57;;;;;;;13.57;12.68;;;1.50;99.90;;;;;;5224377;22;20367;-86
2023/01/19 08:24:27;;;;;;;12.85;12.25;;;1.50;99.90;;;;;;5232897;22;20026;-86
2023/01/19 08:26:48;;;;;;;13.25;12.55;;;1.50;99.90;;;;;;5224203;22;20026;-87
2023/01/19 08:29:08;;;;;;;13.80;13.13;;;1.50;99.90;;;;;;5202378;22;20027;-87
2023/01/19 08:31:28;;;;;;;11.10;10.70;;;1.50;99.90;;;;;;5222534;22;20027;-87
2023/01/19 08:33:49;;;;;;;9.90;9.60;;;1.60;99.90;;;;;;5227313;22;20330;-86
2023/01/19 08:36:08;;;;;;;12.30;11.82;;;1.60;99.90;;;;;;5227438;22;20365;-87
2023/01/19 08:38:29;;;;;;;11.23;10.93;;;1.70;99.90;;;;;;5236072;22;20026;-87
2023/01/19 08:40:50;;;;;;;12.07;11.68;;;1.70;99.90;;;;;;5212430;22;20337;-87
2023/01/19 08:43:14;;;;;;;14.23;13.60;;;1.70;99.90;;;;;;5179054;22;20031;-87
2023/01/19 08:45:36;;;;;;;14.27;13.52;;;1.70;99.90;;;;;;5179828;22;20083;-87
2023/01/19 08:48:00;;;;;;;13.57;12.85;;;1.70;99.90;;;;;;5224286;22;20034;-87
2023/01/19 08:50:21;;;;;;;13.18;12.68;;;1.70;99.90;;;;;;5218980;22;20033;-87
2023/01/19 08:52:41;;;;;;;15.05;14.20;;;1.60;99.90;;;;;;5206275;22;20265;-87
2023/01/19 08:55:01;;;;;;;14.20;13.70;;;1.50;99.90;;;;;;5224241;22;20050;-87
2023/01/19 08:57:21;;;;;;;16.77;15.93;;;1.50;99.90;;;;;;5224028;22;20033;-87
2023/01/19 08:59:40;;;;;;;19.08;17.48;;;1.50;99.90;;;;;;5232758;22;20052;-87
2023/01/19 09:02:01;;;;;;;15.70;14.85;;;1.60;99.90;;;;;;5234790;22;20064;-87
2023/01/19 09:04:22;;;;;;;15.13;14.25;;;1.60;99.90;;;;;;5197338;22;20030;-87
2023/01/19 09:06:42;;;;;;;14.45;13.82;;;1.70;99.90;;;;;;5213505;22;20329;-87
2023/01/19 09:09:02;;;;;;;12.65;12.25;;;1.70;99.90;;;;;;5197424;22;20103;-86
2023/01/19 09:11:22;;;;;;;13.25;12.65;;;1.70;99.90;;;;;;5209126;22;20352;-87
2023/01/19 09:13:42;;;;;;;12.38;11.88;;;1.70;99.90;;;;;;5216788;22;20034;-87
2023/01/19 09:16:03;;;;;;;12.25;11.73;;;1.70;99.90;;;;;;5224134;22;20046;-87
2023/01/19 09:18:23;;;;;;;11.82;11.48;;;1.80;99.90;;;;;;5232555;22;20348;-87
2023/01/19 09:20:45;;;;;;;9.98;9.85;;;1.80;99.90;;;;;;5232653;22;20022;-87
2023/01/19 09:23:05;;;;;;;10.05;9.55;;;1.80;99.90;;;;;;5211394;22;20072;-87
2023/01/19 09:25:26;;;;;;;10.50;9.90;;;1.90;99.90;;;;;;5222794;22;20037;-87
2023/01/19 09:27:46;;;;;;;9.38;8.85;;;1.90;99.90;;;;;;5231551;22;20355;-86
2023/01/19 09:30:07;;;;;;;8.35;8.15;;;2.00;99.90;;;;;;5208961;22;20046;-86
2023/01/19 09:32:27;;;;;;;8.50;8.40;;;2.00;99.90;;;;;;5200543;22;20038;-87
2023/01/19 09:34:47;;;;;;;9.20;9.00;;;2.00;99.90;;;;;;5235811;22;20075;-86
2023/01/19 09:37:07;;;;;;;8.38;8.27;;;2.10;99.90;;;;;;5233448;22;20092;-87
2023/01/19 09:39:27;;;;;;;7.82;7.72;;;2.20;99.90;;;;;;5201605;22;20092;-86
2023/01/19 09:42:08;;;;;;;7.82;7.72;;;2.40;99.90;;;;;;5210249;22;20023;-87
2023/01/19 09:44:33;;;;;;;5.53;5.43;;;2.70;99.90;;;;;;5232501;22;20075;-87
2023/01/19 09:46:52;;;;;;;7.65;7.50;;;2.70;99.90;;;;;;5222781;22;20230;-87
2023/01/19 09:49:34;;;;;;;6.50;6.40;;;2.60;99.90;;;;;;5232591;22;20061;-87
2023/01/19 09:51:54;;;;;;;7.60;7.40;;;2.60;99.90;;;;;;5223932;22;20026;-87
2023/01/19 09:54:17;;;;;;;7.70;7.57;;;2.70;99.90;;;;;;5232535;22;20062;-87
2023/01/19 09:56:37;;;;;;;12.68;11.73;;;2.90;99.90;;;;;;5223772;22;20034;-88
2023/01/19 09:58:59;;;;;;;7.85;7.65;;;3.20;99.90;;;;;;5204543;22;20091;-88
2023/01/19 10:01:34;;;;;;;9.50;9.30;;;3.60;99.90;;;;;;5194407;22;20338;-88
2023/01/19 10:04:27;;;;;;;14.50;13.85;;;3.30;99.90;;;;;;5208875;22;20369;-88
2023/01/19 10:06:48;;;;;;;8.73;8.48;;;3.20;99.90;;;;;;5204574;22;20050;-88
2023/01/19 10:09:17;;;;;;;9.63;9.32;;;3.30;99.90;;;;;;5222681;22;20405;-88
2023/01/19 10:12:07;;;;;;;8.93;8.48;;;3.20;99.90;;;;;;5215134;22;20062;-88
2023/01/19 10:14:52;;;;;;;10.45;10.05;;;3.20;99.90;;;;;;5215081;22;20022;-87
2023/01/19 10:17:16;;;;;;;8.85;8.57;;;3.20;99.90;;;;;;5223733;22;20070;-87
2023/01/19 10:19:40;;;;;;;13.02;12.25;;;3.30;99.90;;;;;;5222091;22;20107;-88
2023/01/19 10:22:12;;;;;;;9.02;8.82;;;3.20;99.90;;;;;;5226589;22;20060;-87
2023/01/19 10:24:39;;;;;;;9.93;9.63;;;3.30;99.90;;;;;;5222759;22;20041;-87
2023/01/19 10:27:00;;;;;;;8.68;8.38;;;3.40;99.90;;;;;;5203590;22;20022;-87
2023/01/19 10:29:19;;;;;;;12.20;11.25;;;3.40;99.90;;;;;;5200833;22;20023;-86
2023/01/19 10:31:41;;;;;;;10.32;10.02;;;3.50;99.90;;;;;;5196249;22;20235;-87
2023/01/19 10:34:02;;;;;;;8.40;8.20;;;3.50;99.90;;;;;;5207391;22;20040;-87
2023/01/19 10:36:37;;;;;;;8.32;8.13;;;3.50;99.90;;;;;;5223625;22;20135;-87
2023/01/19 10:38:57;;;;;;;6.50;6.40;;;3.60;99.90;;;;;;5211012;22;20062;-87
2023/01/19 10:41:30;;;;;;;6.10;6.00;;;3.60;99.90;;;;;;5221203;22;20230;-87
2023/01/19 10:44:01;;;;;;;85.20;65.28;;;3.50;99.90;;;;;;5222440;22;20026;-87
2023/01/19 10:46:57;;;;;;;11.00;10.57;;;3.60;99.90;;;;;;5210902;22;20274;-87
2023/01/19 10:49:27;;;;;;;18.33;17.30;;;3.60;99.90;;;;;;5223224;22;20372;-87
2023/01/19 10:51:48;;;;;;;10.63;10.32;;;3.70;99.90;;;;;;5189794;22;20027;-87
2023/01/19 10:54:16;;;;;;;6.35;6.25;;;3.70;99.90;;;;;;5223578;22;20385;-87
2023/01/19 10:56:38;;;;;;;5.90;5.80;;;3.70;99.90;;;;;;5223360;22;20023;-87
2023/01/19 10:58:59;;;;;;;6.78;6.68;;;3.70;99.90;;;;;;5213853;22;20219;-87
2023/01/19 11:01:23;;;;;;;7.97;7.85;;;3.70;99.90;;;;;;5209706;22;20072;-87
2023/01/19 11:03:43;;;;;;;8.80;8.60;;;4.00;99.90;;;;;;5210691;22;20218;-87
2023/01/19 11:06:12;;;;;;;;;;;4.30;99.90;;;;;;5222268;22;20022;-87
2023/01/19 11:08:32;;;;;;;7.63;7.47;;;4.80;99.90;;;;;;5196606;22;19927;-87
2023/01/19 11:11:01;;;;;;;7.70;7.60;;;4.80;99.90;;;;;;5191114;22;20043;-87
2023/01/19 11:13:21;;;;;;;7.35;7.15;;;5.20;99.90;;;;;;5224145;22;20083;-87
2023/01/19 11:15:42;;;;;;;9.80;9.27;;;5.50;99.90;;;;;;5230067;22;20037;-87
2023/01/19 11:18:04;;;;;;;7.10;6.95;;;5.20;99.90;;;;;;5208541;22;20102;-87
2023/01/19 11:20:42;;;;;;;5.90;5.80;;;4.90;99.90;;;;;;5210189;22;20026;-87
2023/01/19 11:23:21;;;;;;;4.95;4.95;;;4.60;99.90;;;;;;5209380;22;20022;-86
2023/01/19 11:25:46;;;;;;;6.80;6.70;;;4.70;99.90;;;;;;5214115;22;20071;-86
2023/01/19 11:28:17;;;;;;;32.85;29.83;;;4.80;99.90;;;;;;5193528;22;20023;-86
2023/01/19 11:30:37;;;;;;;17.63;16.67;;;4.80;99.90;;;;;;5221646;22;20041;-86
2023/01/19 11:32:57;;;;;;;9.07;8.80;;;4.80;99.90;;;;;;5204830;22;20053;-86
2023/01/19 11:35:38;;;;;;;10.40;9.95;;;4.70;99.90;;;;;;5199575;22;20026;-86
2023/01/19 11:38:12;;;;;;;10.18;9.77;;;4.70;99.90;;;;;;5212470;22;20342;-87
2023/01/19 11:40:33;;;;;;;;;;;4.90;99.90;;;;;;5223154;22;20211;-86
2023/01/19 11:42:53;;;;;;;7.72;7.63;;;4.90;99.90;;;;;;5227100;22;19933;-86
2023/01/19 11:45:16;;;;;;;6.90;6.80;;;4.70;99.90;;;;;;5231229;22;20113;-86
2023/01/19 11:47:51;;;;;;;6.05;5.88;;;4.60;99.90;;;;;;5209433;22;20102;-86
2023/01/19 11:50:39;;;;;;;6.40;6.30;;;4.70;99.90;;;;;;5211468;22;20042;-86
2023/01/19 11:53:28;;;;;;;6.28;6.18;;;4.60;99.90;;;;;;5223112;22;20249;-86
2023/01/19 11:55:55;;;;;;;5.47;5.38;;;4.70;99.90;;;;;;5224335;22;20045;-86
2023/01/19 11:58:18;;;;;;;6.65;6.55;;;4.70;99.90;;;;;;5204579;22;20206;-86
2023/01/19 12:00:38;;;;;;;6.65;6.55;;;4.70;99.90;;;;;;5229446;22;20022;-86
2023/01/19 12:03:07;;;;;;;6.20;6.10;;;4.80;99.90;;;;;;5202205;22;20295;-86
2023/01/19 12:05:32;;;;;;;6.07;5.97;;;4.70;99.90;;;;;;5234465;22;20029;-86
2023/01/19 12:07:54;;;;;;;6.05;5.95;;;4.90;99.90;;;;;;5235444;22;20022;-87
2023/01/19 12:10:20;;;;;;;5.45;5.35;;;5.00;99.90;;;;;;5187726;22;20067;-86
2023/01/19 12:12:42;;;;;;;6.82;6.50;;;5.00;99.90;;;;;;5189331;22;20039;-86
2023/01/19 12:15:05;;;;;;;7.25;7.15;;;5.10;99.90;;;;;;5232813;22;20075;-86
2023/01/19 12:17:39;;;;;;;7.43;7.03;;;5.10;99.90;;;;;;5232686;22;20065;-86
2023/01/19 12:20:20;;;;;;;7.55;7.20;;;4.90;99.90;;;;;;5232896;22;20021;-86
2023/01/19 12:22:49;;;;;;;7.70;7.57;;;4.70;99.90;;;;;;5231656;22;20034;-86
2023/01/19 12:25:35;;;;;;;7.60;7.50;;;4.80;99.90;;;;;;5184597;22;20093;-86
2023/01/19 12:27:58;;;;;;;7.78;7.57;;;4.90;99.90;;;;;;5224119;22;20026;-86
2023/01/19 12:30:26;;;;;;;9.40;9.10;;;4.90;99.90;;;;;;5200681;22;20107;-86